createdAt,value
2023-03-04T00:03:25.268Z,17.6
2023-03-04T00:13:24.667Z,17.7
2023-03-04T00:23:24.995Z,17.6
2023-03-04T00:33:25.443Z,17.8
2023-03-04T00:43:25.761Z,17.8
2023-03-04T00:53:27.102Z,17.7
2023-03-04T01:03:27.431Z,17.6
2023-03-04T01:13:28.189Z,17.6
2023-03-04T01:23:28.920Z,17.7
2023-03-04T01:33:29.575Z,17.8
2023-03-04T01:43:30.226Z,17.7
2023-03-04T01:53:30.766Z,19.6
2023-03-04T02:03:31.489Z,17.6
2023-03-04T02:13:31.808Z,17.4
2023-03-04T02:23:33.072Z,17.8
2023-03-04T02:33:32.442Z,17.5
2023-03-04T02:43:32.451Z,17.5
2023-03-04T02:53:32.859Z,17.6
2023-03-04T03:03:08.015Z,17.4
2023-03-04T03:13:09.132Z,17.3
2023-03-04T03:23:09.014Z,17.7
2023-03-04T03:33:09.599Z,17.4
2023-03-04T03:43:10.665Z,17.3
2023-03-04T03:53:11.129Z,19.5
2023-03-04T04:03:12.314Z,17.4
2023-03-04T04:13:13.794Z,17.4
2023-03-04T04:23:15.520Z,17.4
2023-03-04T04:33:16.689Z,17.3
2023-03-04T04:43:18.108Z,17.3
2023-03-04T04:53:19.978Z,17.1
2023-03-04T05:03:23.326Z,17.2
2023-03-04T05:13:21.262Z,17.1
2023-03-04T05:23:21.526Z,17.2
2023-03-04T05:33:22.483Z,16.9
2023-03-04T05:43:22.675Z,17.1
2023-03-04T05:53:23.559Z,17.1
2023-03-04T06:03:24.520Z,18.9
2023-03-04T06:13:24.722Z,19.3
2023-03-04T06:23:25.246Z,17.3
2023-03-04T06:33:25.805Z,17.4
2023-03-04T06:43:26.256Z,17.2
2023-03-04T06:53:28.005Z,17.5
2023-03-04T07:03:28.327Z,19.4
2023-03-04T07:13:28.981Z,17.2
2023-03-04T07:23:29.483Z,17.2
2023-03-04T07:33:29.721Z,17.7
2023-03-04T07:43:30.026Z,17.5
2023-03-04T07:53:31.187Z,19.8
2023-03-04T08:03:31.228Z,17.7
2023-03-04T08:13:31.761Z,17.8
2023-03-04T08:23:32.621Z,19.7
2023-03-04T08:33:34.444Z,21.1
2023-03-04T08:43:38.184Z,19.6
2023-03-04T08:53:39.507Z,19.1
2023-03-04T09:03:07.950Z,18.1
2023-03-04T09:13:08.611Z,18
2023-03-04T09:23:10.744Z,21.7
2023-03-04T09:33:18.045Z,21.9
2023-03-04T09:43:30.516Z,22.8
2023-03-04T09:53:43.415Z,19.6
2023-03-04T10:03:56.589Z,23.4
2023-03-04T10:14:09.791Z,23.6
2023-03-04T10:24:22.487Z,23.2
2023-03-04T10:34:32.797Z,21.2
2023-03-04T10:44:36.657Z,19.8
2023-03-04T10:54:38.800Z,19.4
2023-03-04T11:04:40.966Z,21.1
2023-03-04T11:14:41.799Z,19.3
2023-03-04T11:24:42.405Z,21.4
2023-03-04T11:34:43.831Z,22
2023-03-04T11:44:44.707Z,19.3
2023-03-04T11:54:46.366Z,18.9
2023-03-04T12:04:48.440Z,21.4
2023-03-04T12:14:49.794Z,19.9
2023-03-04T12:24:53.767Z,20.1
2023-03-04T12:34:57.140Z,22.4
2023-03-04T12:45:02.148Z,23.8
2023-03-04T12:55:04.734Z,19.5
2023-03-04T13:05:07.629Z,22.2
2023-03-04T13:15:09.696Z,21.5
2023-03-04T13:25:11.110Z,21
2023-03-04T13:35:11.744Z,18.9
2023-03-04T13:45:12.809Z,18.9
2023-03-04T13:55:13.676Z,18.8
2023-03-04T14:05:13.801Z,18.9
2023-03-04T14:15:15.041Z,21
2023-03-04T14:25:15.505Z,21.1
2023-03-04T14:35:15.964Z,18.6
2023-03-04T14:45:16.674Z,18.9
2023-03-04T14:55:17.416Z,18.6
2023-03-04T15:03:07.123Z,18.6
2023-03-04T15:13:07.924Z,20.4
2023-03-04T15:23:07.863Z,18.3
2023-03-04T15:33:07.770Z,18.6
2023-03-04T15:43:08.329Z,18.5
2023-03-04T15:53:08.709Z,18.6
2023-03-04T16:03:09.485Z,18.8
2023-03-04T16:13:11.864Z,18.8
2023-03-04T16:23:13.359Z,18.8
2023-03-04T16:33:13.950Z,18.9
2023-03-04T16:43:16.744Z,18.3
2023-03-04T16:53:17.882Z,18.5
2023-03-04T17:03:18.688Z,18.1
2023-03-04T17:13:19.946Z,18.3
2023-03-04T17:23:18.953Z,18.5
2023-03-04T17:33:19.174Z,18.2
2023-03-04T17:43:19.299Z,18.4
2023-03-04T17:53:19.426Z,20.3
2023-03-04T18:03:19.785Z,18.1
2023-03-04T18:13:19.527Z,18.4
2023-03-04T18:23:19.693Z,18.2
2023-03-04T18:33:19.529Z,18.4
2023-03-04T18:43:19.614Z,20.1
2023-03-04T18:53:19.695Z,18.3
2023-03-04T19:03:19.902Z,17.8
2023-03-04T19:13:19.973Z,18.2
2023-03-04T19:23:20.509Z,17.8
2023-03-04T19:33:20.644Z,18.2
2023-03-04T19:43:20.485Z,19.8
2023-03-04T19:53:20.748Z,20.2
2023-03-04T20:03:21.004Z,20.2
2023-03-04T20:13:21.077Z,19.8
2023-03-04T20:23:21.113Z,19.7
2023-03-04T20:33:21.124Z,18.1
2023-03-04T20:43:21.841Z,18.4
2023-03-04T20:53:21.879Z,17.9
2023-03-04T21:03:07.105Z,18.4
2023-03-04T21:13:08.420Z,18.1
2023-03-04T21:23:09.841Z,17.8
2023-03-04T21:33:10.154Z,18.3
2023-03-04T21:43:10.997Z,18.3
2023-03-04T21:53:11.740Z,18.6
2023-03-04T22:03:12.467Z,18.4
2023-03-04T22:13:14.173Z,20.3
2023-03-04T22:23:15.943Z,18.1
2023-03-04T22:33:18.114Z,18.1
2023-03-04T22:43:18.950Z,18.3
2023-03-04T22:53:20.532Z,20.1
2023-03-04T23:03:21.604Z,18.2
2023-03-04T23:13:21.924Z,18.3
2023-03-04T23:23:22.367Z,17.9
2023-03-04T23:33:22.317Z,18.3
2023-03-04T23:43:22.753Z,18.2
2023-03-04T23:53:24.054Z,18.1
